sensor_id;sensor_type;location;lat;lon;timestamp;P1;durP1;ratioP1;P2;durP2;ratioP2
68993;SDS011;56054;50.968;5.816;2024-03-02T00:00:51;1.40;;;0.80;;
68993;SDS011;56054;50.968;5.816;2024-03-02T00:03:59;2.93;;;0.97;;
68993;SDS011;56054;50.968;5.816;2024-03-02T00:07:06;2.23;;;0.70;;
68993;SDS011;56054;50.968;5.816;2024-03-02T00:10:16;1.60;;;0.70;;
68993;SDS011;56054;50.968;5.816;2024-03-02T00:13:25;3.90;;;0.93;;
68993;SDS011;56054;50.968;5.816;2024-03-02T00:16:33;2.73;;;0.80;;
68993;SDS011;56054;50.968;5.816;2024-03-02T00:19:40;1.90;;;0.53;;
68993;SDS011;56054;50.968;5.816;2024-03-02T00:22:47;2.00;;;0.77;;
68993;SDS011;56054;50.968;5.816;2024-03-02T00:25:54;2.67;;;0.70;;
68993;SDS011;56054;50.968;5.816;2024-03-02T00:29:01;5.13;;;1.10;;
68993;SDS011;56054;50.968;5.816;2024-03-02T00:32:12;1.60;;;0.80;;
68993;SDS011;56054;50.968;5.816;2024-03-02T00:35:22;1.07;;;0.70;;
68993;SDS011;56054;50.968;5.816;2024-03-02T00:38:30;3.13;;;0.80;;
68993;SDS011;56054;50.968;5.816;2024-03-02T00:41:37;3.37;;;0.90;;
68993;SDS011;56054;50.968;5.816;2024-03-02T00:44:47;2.33;;;0.90;;
68993;SDS011;56054;50.968;5.816;2024-03-02T00:47:54;2.60;;;1.00;;
68993;SDS011;56054;50.968;5.816;2024-03-02T00:51:02;4.67;;;1.03;;
68993;SDS011;56054;50.968;5.816;2024-03-02T00:54:09;6.67;;;0.90;;
68993;SDS011;56054;50.968;5.816;2024-03-02T00:57:17;2.60;;;0.83;;
68993;SDS011;56054;50.968;5.816;2024-03-02T01:00:24;1.07;;;0.53;;
68993;SDS011;56054;50.968;5.816;2024-03-02T01:03:31;2.23;;;0.90;;
68993;SDS011;56054;50.968;5.816;2024-03-02T01:06:38;1.37;;;0.87;;
68993;SDS011;56054;50.968;5.816;2024-03-02T01:09:45;0.93;;;0.60;;
68993;SDS011;56054;50.968;5.816;2024-03-02T01:12:52;0.73;;;0.47;;
68993;SDS011;56054;50.968;5.816;2024-03-02T01:16:00;0.50;;;0.37;;
68993;SDS011;56054;50.968;5.816;2024-03-02T01:19:06;2.27;;;0.40;;
68993;SDS011;56054;50.968;5.816;2024-03-02T01:22:13;7.93;;;0.70;;
68993;SDS011;56054;50.968;5.816;2024-03-02T01:25:20;3.97;;;1.17;;
68993;SDS011;56054;50.968;5.816;2024-03-02T01:28:27;3.67;;;0.70;;
68993;SDS011;56054;50.968;5.816;2024-03-02T01:31:34;0.50;;;0.40;;
68993;SDS011;56054;50.968;5.816;2024-03-02T01:34:41;0.43;;;0.30;;
68993;SDS011;56054;50.968;5.816;2024-03-02T01:37:48;0.87;;;0.40;;
68993;SDS011;56054;50.968;5.816;2024-03-02T01:40:55;0.60;;;0.50;;
68993;SDS011;56054;50.968;5.816;2024-03-02T01:44:02;0.47;;;0.43;;
68993;SDS011;56054;50.968;5.816;2024-03-02T01:47:10;2.57;;;0.50;;
68993;SDS011;56054;50.968;5.816;2024-03-02T01:50:27;0.83;;;0.40;;
68993;SDS011;56054;50.968;5.816;2024-03-02T01:53:34;1.20;;;0.50;;
68993;SDS011;56054;50.968;5.816;2024-03-02T01:56:41;0.60;;;0.40;;
68993;SDS011;56054;50.968;5.816;2024-03-02T01:59:48;1.40;;;0.43;;
68993;SDS011;56054;50.968;5.816;2024-03-02T02:02:55;1.93;;;0.30;;
68993;SDS011;56054;50.968;5.816;2024-03-02T02:06:02;0.50;;;0.30;;
68993;SDS011;56054;50.968;5.816;2024-03-02T02:09:09;1.40;;;0.40;;
68993;SDS011;56054;50.968;5.816;2024-03-02T02:12:16;0.60;;;0.40;;
68993;SDS011;56054;50.968;5.816;2024-03-02T02:15:27;0.20;;;0.20;;
68993;SDS011;56054;50.968;5.816;2024-03-02T02:18:37;0.30;;;0.30;;
68993;SDS011;56054;50.968;5.816;2024-03-02T02:21:44;0.33;;;0.30;;
68993;SDS011;56054;50.968;5.816;2024-03-02T02:24:51;0.73;;;0.30;;
68993;SDS011;56054;50.968;5.816;2024-03-02T02:27:58;4.53;;;0.50;;
68993;SDS011;56054;50.968;5.816;2024-03-02T02:31:05;1.00;;;0.60;;
68993;SDS011;56054;50.968;5.816;2024-03-02T02:34:13;2.33;;;0.30;;
68993;SDS011;56054;50.968;5.816;2024-03-02T02:37:20;1.80;;;0.30;;
68993;SDS011;56054;50.968;5.816;2024-03-02T02:40:27;0.37;;;0.30;;
68993;SDS011;56054;50.968;5.816;2024-03-02T02:43:34;1.07;;;0.43;;
68993;SDS011;56054;50.968;5.816;2024-03-02T02:46:42;0.23;;;0.23;;
68993;SDS011;56054;50.968;5.816;2024-03-02T02:49:49;0.20;;;0.20;;
68993;SDS011;56054;50.968;5.816;2024-03-02T02:52:56;0.20;;;0.20;;
68993;SDS011;56054;50.968;5.816;2024-03-02T02:56:03;0.30;;;0.30;;
68993;SDS011;56054;50.968;5.816;2024-03-02T02:59:10;0.30;;;0.30;;
68993;SDS011;56054;50.968;5.816;2024-03-02T03:02:17;0.30;;;0.30;;
68993;SDS011;56054;50.968;5.816;2024-03-02T03:05:24;0.53;;;0.30;;
68993;SDS011;56054;50.968;5.816;2024-03-02T03:08:31;0.37;;;0.37;;
68993;SDS011;56054;50.968;5.816;2024-03-02T03:11:38;0.53;;;0.30;;
68993;SDS011;56054;50.968;5.816;2024-03-02T03:14:46;0.30;;;0.30;;
68993;SDS011;56054;50.968;5.816;2024-03-02T03:17:52;1.80;;;0.30;;
68993;SDS011;56054;50.968;5.816;2024-03-02T03:20:59;0.40;;;0.27;;
68993;SDS011;56054;50.968;5.816;2024-03-02T03:24:06;0.30;;;0.30;;
68993;SDS011;56054;50.968;5.816;2024-03-02T03:27:13;0.30;;;0.30;;
68993;SDS011;56054;50.968;5.816;2024-03-02T03:30:20;0.93;;;0.30;;
68993;SDS011;56054;50.968;5.816;2024-03-02T03:33:27;1.73;;;0.40;;
68993;SDS011;56054;50.968;5.816;2024-03-02T03:36:34;0.33;;;0.33;;
68993;SDS011;56054;50.968;5.816;2024-03-02T03:39:41;0.30;;;0.30;;
68993;SDS011;56054;50.968;5.816;2024-03-02T03:42:48;0.30;;;0.30;;
68993;SDS011;56054;50.968;5.816;2024-03-02T03:45:55;0.60;;;0.30;;
68993;SDS011;56054;50.968;5.816;2024-03-02T03:49:03;0.40;;;0.40;;
68993;SDS011;56054;50.968;5.816;2024-03-02T03:52:09;0.40;;;0.20;;
68993;SDS011;56054;50.968;5.816;2024-03-02T03:55:16;0.30;;;0.30;;
68993;SDS011;56054;50.968;5.816;2024-03-02T03:58:23;0.30;;;0.30;;
68993;SDS011;56054;50.968;5.816;2024-03-02T04:01:30;0.30;;;0.30;;
68993;SDS011;56054;50.968;5.816;2024-03-02T04:04:37;1.90;;;0.43;;
68993;SDS011;56054;50.968;5.816;2024-03-02T04:07:44;0.20;;;0.20;;
68993;SDS011;56054;50.968;5.816;2024-03-02T04:10:51;0.57;;;0.30;;
68993;SDS011;56054;50.968;5.816;2024-03-02T04:13:58;0.57;;;0.30;;
68993;SDS011;56054;50.968;5.816;2024-03-02T04:17:05;0.30;;;0.30;;
68993;SDS011;56054;50.968;5.816;2024-03-02T04:20:12;0.40;;;0.40;;
68993;SDS011;56054;50.968;5.816;2024-03-02T04:23:26;1.60;;;0.30;;
68993;SDS011;56054;50.968;5.816;2024-03-02T04:26:35;0.50;;;0.40;;
68993;SDS011;56054;50.968;5.816;2024-03-02T04:29:41;1.50;;;0.50;;
68993;SDS011;56054;50.968;5.816;2024-03-02T04:32:48;0.30;;;0.30;;
68993;SDS011;56054;50.968;5.816;2024-03-02T04:35:55;1.07;;;0.40;;
68993;SDS011;56054;50.968;5.816;2024-03-02T04:39:02;0.20;;;0.20;;
68993;SDS011;56054;50.968;5.816;2024-03-02T04:42:09;0.50;;;0.40;;
68993;SDS011;56054;50.968;5.816;2024-03-02T04:45:16;1.30;;;0.50;;
68993;SDS011;56054;50.968;5.816;2024-03-02T04:48:23;0.93;;;0.40;;
68993;SDS011;56054;50.968;5.816;2024-03-02T04:51:30;0.37;;;0.30;;
68993;SDS011;56054;50.968;5.816;2024-03-02T04:54:37;1.20;;;0.40;;
68993;SDS011;56054;50.968;5.816;2024-03-02T04:57:44;0.30;;;0.30;;
68993;SDS011;56054;50.968;5.816;2024-03-02T05:00:51;0.30;;;0.30;;
68993;SDS011;56054;50.968;5.816;2024-03-02T05:03:58;0.70;;;0.60;;
68993;SDS011;56054;50.968;5.816;2024-03-02T05:07:05;0.60;;;0.33;;
68993;SDS011;56054;50.968;5.816;2024-03-02T05:10:12;2.83;;;0.40;;
68993;SDS011;56054;50.968;5.816;2024-03-02T05:13:19;0.63;;;0.30;;
68993;SDS011;56054;50.968;5.816;2024-03-02T05:16:26;3.40;;;0.50;;
68993;SDS011;56054;50.968;5.816;2024-03-02T05:19:33;0.30;;;0.30;;
68993;SDS011;56054;50.968;5.816;2024-03-02T05:22:40;0.30;;;0.20;;
68993;SDS011;56054;50.968;5.816;2024-03-02T05:25:47;0.70;;;0.40;;
68993;SDS011;56054;50.968;5.816;2024-03-02T05:28:54;0.97;;;0.60;;
68993;SDS011;56054;50.968;5.816;2024-03-02T05:32:01;0.57;;;0.20;;
68993;SDS011;56054;50.968;5.816;2024-03-02T05:35:08;2.77;;;0.40;;
68993;SDS011;56054;50.968;5.816;2024-03-02T05:38:15;0.73;;;0.33;;
68993;SDS011;56054;50.968;5.816;2024-03-02T05:41:22;3.13;;;0.40;;
68993;SDS011;56054;50.968;5.816;2024-03-02T05:44:29;0.63;;;0.30;;
68993;SDS011;56054;50.968;5.816;2024-03-02T05:47:36;1.23;;;0.30;;
68993;SDS011;56054;50.968;5.816;2024-03-02T05:50:43;0.20;;;0.20;;
68993;SDS011;56054;50.968;5.816;2024-03-02T05:53:50;0.60;;;0.30;;
68993;SDS011;56054;50.968;5.816;2024-03-02T05:56:57;0.50;;;0.33;;
68993;SDS011;56054;50.968;5.816;2024-03-02T06:00:05;0.30;;;0.20;;
68993;SDS011;56054;50.968;5.816;2024-03-02T06:03:15;0.77;;;0.40;;
68993;SDS011;56054;50.968;5.816;2024-03-02T06:06:22;0.30;;;0.30;;
68993;SDS011;56054;50.968;5.816;2024-03-02T06:09:29;1.47;;;0.50;;
68993;SDS011;56054;50.968;5.816;2024-03-02T06:12:36;1.13;;;0.40;;
68993;SDS011;56054;50.968;5.816;2024-03-02T06:15:43;0.70;;;0.50;;
68993;SDS011;56054;50.968;5.816;2024-03-02T06:18:50;0.53;;;0.40;;
68993;SDS011;56054;50.968;5.816;2024-03-02T06:21:57;0.50;;;0.30;;
68993;SDS011;56054;50.968;5.816;2024-03-02T06:25:04;0.50;;;0.40;;
68993;SDS011;56054;50.968;5.816;2024-03-02T06:28:11;1.97;;;0.50;;
68993;SDS011;56054;50.968;5.816;2024-03-02T06:31:18;0.53;;;0.30;;
68993;SDS011;56054;50.968;5.816;2024-03-02T06:34:25;0.87;;;0.37;;
68993;SDS011;56054;50.968;5.816;2024-03-02T06:37:32;0.90;;;0.50;;
68993;SDS011;56054;50.968;5.816;2024-03-02T06:40:39;2.60;;;0.40;;
68993;SDS011;56054;50.968;5.816;2024-03-02T06:43:46;2.57;;;0.50;;
68993;SDS011;56054;50.968;5.816;2024-03-02T06:46:53;3.93;;;0.70;;
68993;SDS011;56054;50.968;5.816;2024-03-02T06:50:00;1.37;;;0.40;;
68993;SDS011;56054;50.968;5.816;2024-03-02T06:53:07;0.53;;;0.40;;
68993;SDS011;56054;50.968;5.816;2024-03-02T06:56:14;0.70;;;0.50;;
68993;SDS011;56054;50.968;5.816;2024-03-02T06:59:21;3.43;;;0.60;;
68993;SDS011;56054;50.968;5.816;2024-03-02T07:02:28;3.70;;;0.60;;
68993;SDS011;56054;50.968;5.816;2024-03-02T07:05:35;1.07;;;0.40;;
68993;SDS011;56054;50.968;5.816;2024-03-02T07:08:42;1.27;;;0.40;;
68993;SDS011;56054;50.968;5.816;2024-03-02T07:11:49;2.77;;;0.60;;
68993;SDS011;56054;50.968;5.816;2024-03-02T07:14:57;1.60;;;0.57;;
68993;SDS011;56054;50.968;5.816;2024-03-02T07:18:03;3.40;;;0.40;;
68993;SDS011;56054;50.968;5.816;2024-03-02T07:21:10;2.10;;;0.57;;
68993;SDS011;56054;50.968;5.816;2024-03-02T07:24:17;3.13;;;0.50;;
68993;SDS011;56054;50.968;5.816;2024-03-02T07:27:24;1.67;;;0.60;;
68993;SDS011;56054;50.968;5.816;2024-03-02T07:30:31;1.43;;;0.50;;
68993;SDS011;56054;50.968;5.816;2024-03-02T07:33:38;1.50;;;0.40;;
68993;SDS011;56054;50.968;5.816;2024-03-02T07:36:45;2.43;;;0.47;;
68993;SDS011;56054;50.968;5.816;2024-03-02T07:39:52;3.93;;;0.40;;
68993;SDS011;56054;50.968;5.816;2024-03-02T07:42:59;3.50;;;0.60;;
68993;SDS011;56054;50.968;5.816;2024-03-02T07:46:06;3.87;;;0.70;;
68993;SDS011;56054;50.968;5.816;2024-03-02T07:49:13;1.07;;;0.50;;
68993;SDS011;56054;50.968;5.816;2024-03-02T07:52:20;2.17;;;0.50;;
68993;SDS011;56054;50.968;5.816;2024-03-02T07:55:27;1.23;;;0.60;;
68993;SDS011;56054;50.968;5.816;2024-03-02T07:58:34;5.93;;;0.70;;
68993;SDS011;56054;50.968;5.816;2024-03-02T08:01:41;1.47;;;0.60;;
68993;SDS011;56054;50.968;5.816;2024-03-02T08:04:48;1.90;;;0.80;;
68993;SDS011;56054;50.968;5.816;2024-03-02T08:07:55;1.63;;;0.60;;
68993;SDS011;56054;50.968;5.816;2024-03-02T08:11:02;6.13;;;0.57;;
68993;SDS011;56054;50.968;5.816;2024-03-02T08:14:09;2.10;;;0.67;;
68993;SDS011;56054;50.968;5.816;2024-03-02T08:17:16;1.43;;;0.70;;
68993;SDS011;56054;50.968;5.816;2024-03-02T08:20:23;4.70;;;0.73;;
68993;SDS011;56054;50.968;5.816;2024-03-02T08:23:30;5.13;;;0.87;;
68993;SDS011;56054;50.968;5.816;2024-03-02T08:26:37;2.33;;;0.67;;
68993;SDS011;56054;50.968;5.816;2024-03-02T08:29:44;3.37;;;0.80;;
68993;SDS011;56054;50.968;5.816;2024-03-02T08:32:51;2.27;;;0.50;;
68993;SDS011;56054;50.968;5.816;2024-03-02T08:35:59;3.10;;;0.60;;
68993;SDS011;56054;50.968;5.816;2024-03-02T08:39:05;1.23;;;0.60;;
68993;SDS011;56054;50.968;5.816;2024-03-02T08:42:12;2.80;;;0.50;;
68993;SDS011;56054;50.968;5.816;2024-03-02T08:45:19;2.97;;;0.50;;
68993;SDS011;56054;50.968;5.816;2024-03-02T08:48:26;1.07;;;0.50;;
68993;SDS011;56054;50.968;5.816;2024-03-02T08:51:33;3.53;;;0.67;;
68993;SDS011;56054;50.968;5.816;2024-03-02T08:54:40;2.50;;;0.60;;
68993;SDS011;56054;50.968;5.816;2024-03-02T08:57:47;3.80;;;0.63;;
68993;SDS011;56054;50.968;5.816;2024-03-02T09:00:56;3.10;;;0.73;;
68993;SDS011;56054;50.968;5.816;2024-03-02T09:04:02;1.47;;;0.50;;
68993;SDS011;56054;50.968;5.816;2024-03-02T09:07:09;6.43;;;0.83;;
68993;SDS011;56054;50.968;5.816;2024-03-02T09:10:16;2.97;;;0.80;;
68993;SDS011;56054;50.968;5.816;2024-03-02T09:13:23;1.60;;;0.67;;
68993;SDS011;56054;50.968;5.816;2024-03-02T09:16:30;1.87;;;0.50;;
68993;SDS011;56054;50.968;5.816;2024-03-02T09:19:39;1.23;;;0.50;;
68993;SDS011;56054;50.968;5.816;2024-03-02T09:22:46;3.60;;;0.80;;
68993;SDS011;56054;50.968;5.816;2024-03-02T09:25:53;3.67;;;0.60;;
68993;SDS011;56054;50.968;5.816;2024-03-02T09:29:07;2.63;;;0.50;;
68993;SDS011;56054;50.968;5.816;2024-03-02T09:32:14;2.70;;;0.50;;
68993;SDS011;56054;50.968;5.816;2024-03-02T09:35:21;4.00;;;0.70;;
68993;SDS011;56054;50.968;5.816;2024-03-02T09:38:28;4.03;;;1.70;;
68993;SDS011;56054;50.968;5.816;2024-03-02T09:41:36;1.43;;;0.60;;
68993;SDS011;56054;50.968;5.816;2024-03-02T09:44:43;3.07;;;0.80;;
68993;SDS011;56054;50.968;5.816;2024-03-02T09:47:51;4.47;;;0.73;;
68993;SDS011;56054;50.968;5.816;2024-03-02T09:50:58;3.10;;;0.70;;
68993;SDS011;56054;50.968;5.816;2024-03-02T09:54:07;1.40;;;0.77;;
68993;SDS011;56054;50.968;5.816;2024-03-02T09:57:15;3.23;;;0.90;;
68993;SDS011;56054;50.968;5.816;2024-03-02T10:00:21;1.57;;;0.53;;
68993;SDS011;56054;50.968;5.816;2024-03-02T10:03:28;0.80;;;0.50;;
68993;SDS011;56054;50.968;5.816;2024-03-02T10:06:36;3.23;;;0.70;;
68993;SDS011;56054;50.968;5.816;2024-03-02T10:09:43;5.50;;;0.80;;
68993;SDS011;56054;50.968;5.816;2024-03-02T10:12:59;1.03;;;0.53;;
68993;SDS011;56054;50.968;5.816;2024-03-02T10:16:13;2.43;;;0.60;;
68993;SDS011;56054;50.968;5.816;2024-03-02T10:19:21;2.33;;;0.63;;
68993;SDS011;56054;50.968;5.816;2024-03-02T10:22:29;2.10;;;0.63;;
68993;SDS011;56054;50.968;5.816;2024-03-02T10:25:36;1.70;;;0.70;;
68993;SDS011;56054;50.968;5.816;2024-03-02T10:28:47;5.60;;;0.67;;
68993;SDS011;56054;50.968;5.816;2024-03-02T10:31:53;4.47;;;0.90;;
68993;SDS011;56054;50.968;5.816;2024-03-02T10:35:00;5.13;;;0.83;;
68993;SDS011;56054;50.968;5.816;2024-03-02T10:38:07;2.47;;;0.70;;
68993;SDS011;56054;50.968;5.816;2024-03-02T10:41:24;2.97;;;0.70;;
68993;SDS011;56054;50.968;5.816;2024-03-02T10:44:33;4.90;;;0.70;;
68993;SDS011;56054;50.968;5.816;2024-03-02T10:47:41;3.90;;;0.87;;
68993;SDS011;56054;50.968;5.816;2024-03-02T10:50:48;3.47;;;0.80;;
68993;SDS011;56054;50.968;5.816;2024-03-02T10:53:55;6.63;;;0.90;;
68993;SDS011;56054;50.968;5.816;2024-03-02T10:57:03;5.13;;;0.70;;
68993;SDS011;56054;50.968;5.816;2024-03-02T11:00:13;3.77;;;0.87;;
68993;SDS011;56054;50.968;5.816;2024-03-02T11:03:20;5.70;;;0.67;;
68993;SDS011;56054;50.968;5.816;2024-03-02T11:06:28;1.23;;;0.60;;
68993;SDS011;56054;50.968;5.816;2024-03-02T11:09:36;1.63;;;0.50;;
68993;SDS011;56054;50.968;5.816;2024-03-02T11:12:54;6.03;;;0.60;;
68993;SDS011;56054;50.968;5.816;2024-03-02T11:16:06;5.93;;;0.60;;
68993;SDS011;56054;50.968;5.816;2024-03-02T11:19:18;1.77;;;0.40;;
68993;SDS011;56054;50.968;5.816;2024-03-02T11:22:26;5.80;;;0.63;;
68993;SDS011;56054;50.968;5.816;2024-03-02T11:25:33;3.70;;;0.50;;
68993;SDS011;56054;50.968;5.816;2024-03-02T11:28:40;2.37;;;0.53;;
68993;SDS011;56054;50.968;5.816;2024-03-02T11:31:59;4.73;;;0.50;;
68993;SDS011;56054;50.968;5.816;2024-03-02T11:35:06;2.83;;;0.70;;
68993;SDS011;56054;50.968;5.816;2024-03-02T11:38:14;6.40;;;1.93;;
68993;SDS011;56054;50.968;5.816;2024-03-02T11:41:20;4.17;;;0.93;;
68993;SDS011;56054;50.968;5.816;2024-03-02T11:44:28;5.23;;;0.70;;
68993;SDS011;56054;50.968;5.816;2024-03-02T11:47:35;2.90;;;0.70;;
68993;SDS011;56054;50.968;5.816;2024-03-02T11:50:52;2.57;;;0.70;;
68993;SDS011;56054;50.968;5.816;2024-03-02T11:53:59;4.67;;;0.80;;
68993;SDS011;56054;50.968;5.816;2024-03-02T11:57:08;1.60;;;0.47;;
68993;SDS011;56054;50.968;5.816;2024-03-02T12:00:19;2.93;;;0.53;;
68993;SDS011;56054;50.968;5.816;2024-03-02T12:03:27;3.67;;;0.60;;
68993;SDS011;56054;50.968;5.816;2024-03-02T12:06:33;4.20;;;0.83;;
68993;SDS011;56054;50.968;5.816;2024-03-02T12:09:41;1.43;;;0.53;;
68993;SDS011;56054;50.968;5.816;2024-03-02T12:12:48;1.40;;;0.40;;
68993;SDS011;56054;50.968;5.816;2024-03-02T12:16:00;2.20;;;0.57;;
68993;SDS011;56054;50.968;5.816;2024-03-02T12:19:07;1.33;;;0.50;;
68993;SDS011;56054;50.968;5.816;2024-03-02T12:22:15;2.67;;;0.80;;
68993;SDS011;56054;50.968;5.816;2024-03-02T12:25:22;3.43;;;0.70;;
68993;SDS011;56054;50.968;5.816;2024-03-02T12:28:30;3.77;;;0.67;;
68993;SDS011;56054;50.968;5.816;2024-03-02T12:31:37;1.23;;;0.60;;
68993;SDS011;56054;50.968;5.816;2024-03-02T12:34:46;1.17;;;0.50;;
68993;SDS011;56054;50.968;5.816;2024-03-02T12:37:53;4.20;;;0.70;;
68993;SDS011;56054;50.968;5.816;2024-03-02T12:41:01;2.50;;;0.63;;
68993;SDS011;56054;50.968;5.816;2024-03-02T12:44:08;0.75;;;0.47;;
68993;SDS011;56054;50.968;5.816;2024-03-02T12:47:15;3.55;;;0.52;;
68993;SDS011;56054;50.968;5.816;2024-03-02T12:50:22;1.77;;;0.73;;
68993;SDS011;56054;50.968;5.816;2024-03-02T12:53:29;1.48;;;0.50;;
68993;SDS011;56054;50.968;5.816;2024-03-02T12:56:36;3.35;;;1.00;;
68993;SDS011;56054;50.968;5.816;2024-03-02T12:59:47;4.40;;;0.60;;
68993;SDS011;56054;50.968;5.816;2024-03-02T13:02:54;2.20;;;0.50;;
68993;SDS011;56054;50.968;5.816;2024-03-02T13:06:03;2.53;;;0.40;;
68993;SDS011;56054;50.968;5.816;2024-03-02T13:09:11;0.65;;;0.30;;
68993;SDS011;56054;50.968;5.816;2024-03-02T13:12:19;1.80;;;0.52;;
68993;SDS011;56054;50.968;5.816;2024-03-02T13:15:26;1.02;;;0.50;;
68993;SDS011;56054;50.968;5.816;2024-03-02T13:18:34;4.18;;;0.70;;
68993;SDS011;56054;50.968;5.816;2024-03-02T13:21:41;4.30;;;0.68;;
68993;SDS011;56054;50.968;5.816;2024-03-02T13:24:48;2.38;;;0.60;;
68993;SDS011;56054;50.968;5.816;2024-03-02T13:27:57;1.98;;;0.52;;
68993;SDS011;56054;50.968;5.816;2024-03-02T13:31:04;3.30;;;0.52;;
68993;SDS011;56054;50.968;5.816;2024-03-02T13:34:11;1.40;;;0.45;;
68993;SDS011;56054;50.968;5.816;2024-03-02T13:37:18;3.08;;;0.40;;
68993;SDS011;56054;50.968;5.816;2024-03-02T13:40:25;0.90;;;0.40;;
68993;SDS011;56054;50.968;5.816;2024-03-02T13:43:32;1.55;;;0.77;;
68993;SDS011;56054;50.968;5.816;2024-03-02T13:46:39;3.65;;;0.60;;
68993;SDS011;56054;50.968;5.816;2024-03-02T13:49:46;0.57;;;0.50;;
68993;SDS011;56054;50.968;5.816;2024-03-02T13:52:53;1.92;;;0.40;;
68993;SDS011;56054;50.968;5.816;2024-03-02T13:56:00;1.70;;;0.65;;
68993;SDS011;56054;50.968;5.816;2024-03-02T13:59:07;1.02;;;0.40;;
68993;SDS011;56054;50.968;5.816;2024-03-02T14:02:15;3.80;;;0.60;;
68993;SDS011;56054;50.968;5.816;2024-03-02T14:05:22;1.17;;;0.40;;
68993;SDS011;56054;50.968;5.816;2024-03-02T14:08:29;0.85;;;0.50;;
68993;SDS011;56054;50.968;5.816;2024-03-02T14:11:36;2.72;;;0.38;;
68993;SDS011;56054;50.968;5.816;2024-03-02T14:14:43;0.43;;;0.32;;
68993;SDS011;56054;50.968;5.816;2024-03-02T14:17:50;1.30;;;0.52;;
68993;SDS011;56054;50.968;5.816;2024-03-02T14:20:57;1.05;;;0.60;;
68993;SDS011;56054;50.968;5.816;2024-03-02T14:24:04;1.13;;;0.60;;
68993;SDS011;56054;50.968;5.816;2024-03-02T14:27:11;2.38;;;0.60;;
68993;SDS011;56054;50.968;5.816;2024-03-02T14:30:18;1.90;;;0.60;;
68993;SDS011;56054;50.968;5.816;2024-03-02T14:33:25;3.55;;;0.50;;
68993;SDS011;56054;50.968;5.816;2024-03-02T14:36:32;3.00;;;0.65;;
68993;SDS011;56054;50.968;5.816;2024-03-02T14:39:39;1.25;;;0.50;;
68993;SDS011;56054;50.968;5.816;2024-03-02T14:42:46;1.45;;;0.55;;
68993;SDS011;56054;50.968;5.816;2024-03-02T14:45:53;7.97;;;0.73;;
68993;SDS011;56054;50.968;5.816;2024-03-02T14:49:00;1.65;;;0.30;;
68993;SDS011;56054;50.968;5.816;2024-03-02T14:52:14;1.45;;;0.50;;
68993;SDS011;56054;50.968;5.816;2024-03-02T14:55:21;1.70;;;0.70;;
68993;SDS011;56054;50.968;5.816;2024-03-02T14:58:28;0.75;;;0.43;;
68993;SDS011;56054;50.968;5.816;2024-03-02T15:01:35;2.40;;;0.63;;
68993;SDS011;56054;50.968;5.816;2024-03-02T15:04:42;1.58;;;0.70;;
68993;SDS011;56054;50.968;5.816;2024-03-02T15:07:49;1.35;;;0.50;;
68993;SDS011;56054;50.968;5.816;2024-03-02T15:10:56;0.40;;;0.30;;
68993;SDS011;56054;50.968;5.816;2024-03-02T15:14:03;1.55;;;0.50;;
68993;SDS011;56054;50.968;5.816;2024-03-02T15:17:10;3.85;;;0.55;;
68993;SDS011;56054;50.968;5.816;2024-03-02T15:20:17;1.20;;;0.70;;
68993;SDS011;56054;50.968;5.816;2024-03-02T15:23:24;2.00;;;0.65;;
68993;SDS011;56054;50.968;5.816;2024-03-02T15:26:31;0.77;;;0.52;;
68993;SDS011;56054;50.968;5.816;2024-03-02T15:29:44;1.15;;;0.50;;
68993;SDS011;56054;50.968;5.816;2024-03-02T15:32:58;2.25;;;0.70;;
68993;SDS011;56054;50.968;5.816;2024-03-02T15:36:06;1.90;;;0.63;;
68993;SDS011;56054;50.968;5.816;2024-03-02T15:39:14;2.17;;;0.70;;
68993;SDS011;56054;50.968;5.816;2024-03-02T15:42:21;2.60;;;0.68;;
68993;SDS011;56054;50.968;5.816;2024-03-02T15:45:28;1.48;;;0.70;;
68993;SDS011;56054;50.968;5.816;2024-03-02T15:48:35;2.88;;;1.00;;
68993;SDS011;56054;50.968;5.816;2024-03-02T15:51:42;2.15;;;0.82;;
68993;SDS011;56054;50.968;5.816;2024-03-02T15:54:49;1.98;;;0.80;;
68993;SDS011;56054;50.968;5.816;2024-03-02T15:57:56;1.33;;;0.80;;
68993;SDS011;56054;50.968;5.816;2024-03-02T16:01:03;2.30;;;0.80;;
68993;SDS011;56054;50.968;5.816;2024-03-02T16:04:10;1.02;;;0.88;;
68993;SDS011;56054;50.968;5.816;2024-03-02T16:07:17;3.13;;;0.70;;
68993;SDS011;56054;50.968;5.816;2024-03-02T16:10:24;3.30;;;1.00;;
68993;SDS011;56054;50.968;5.816;2024-03-02T16:13:31;0.90;;;0.70;;
68993;SDS011;56054;50.968;5.816;2024-03-02T16:16:38;2.03;;;0.80;;
68993;SDS011;56054;50.968;5.816;2024-03-02T16:19:45;3.05;;;0.90;;
68993;SDS011;56054;50.968;5.816;2024-03-02T16:22:52;2.78;;;0.90;;
68993;SDS011;56054;50.968;5.816;2024-03-02T16:25:59;1.35;;;0.77;;
68993;SDS011;56054;50.968;5.816;2024-03-02T16:29:06;5.05;;;1.25;;
68993;SDS011;56054;50.968;5.816;2024-03-02T16:32:13;3.38;;;1.10;;
68993;SDS011;56054;50.968;5.816;2024-03-02T16:35:20;2.40;;;0.85;;
68993;SDS011;56054;50.968;5.816;2024-03-02T16:38:27;2.35;;;0.93;;
68993;SDS011;56054;50.968;5.816;2024-03-02T16:41:34;1.55;;;0.80;;
68993;SDS011;56054;50.968;5.816;2024-03-02T16:44:41;1.95;;;0.85;;
68993;SDS011;56054;50.968;5.816;2024-03-02T16:47:48;2.15;;;0.50;;
68993;SDS011;56054;50.968;5.816;2024-03-02T16:50:55;3.10;;;0.90;;
68993;SDS011;56054;50.968;5.816;2024-03-02T16:54:02;1.45;;;0.75;;
68993;SDS011;56054;50.968;5.816;2024-03-02T16:57:09;2.53;;;0.70;;
68993;SDS011;56054;50.968;5.816;2024-03-02T17:00:16;1.50;;;0.70;;
68993;SDS011;56054;50.968;5.816;2024-03-02T17:03:23;2.53;;;0.80;;
68993;SDS011;56054;50.968;5.816;2024-03-02T17:06:30;1.88;;;0.75;;
68993;SDS011;56054;50.968;5.816;2024-03-02T17:09:37;2.28;;;0.95;;
68993;SDS011;56054;50.968;5.816;2024-03-02T17:12:44;3.00;;;0.80;;
68993;SDS011;56054;50.968;5.816;2024-03-02T17:15:51;2.00;;;0.95;;
68993;SDS011;56054;50.968;5.816;2024-03-02T17:18:58;2.37;;;1.00;;
68993;SDS011;56054;50.968;5.816;2024-03-02T17:22:05;1.83;;;0.93;;
68993;SDS011;56054;50.968;5.816;2024-03-02T17:25:12;0.70;;;0.70;;
68993;SDS011;56054;50.968;5.816;2024-03-02T17:28:25;2.13;;;1.10;;
68993;SDS011;56054;50.968;5.816;2024-03-02T17:31:33;1.97;;;0.70;;
68993;SDS011;56054;50.968;5.816;2024-03-02T17:34:40;2.00;;;0.80;;
68993;SDS011;56054;50.968;5.816;2024-03-02T17:37:47;1.15;;;0.77;;
68993;SDS011;56054;50.968;5.816;2024-03-02T17:40:54;1.20;;;0.70;;
68993;SDS011;56054;50.968;5.816;2024-03-02T17:44:01;1.37;;;0.80;;
68993;SDS011;56054;50.968;5.816;2024-03-02T17:47:09;1.03;;;0.60;;
68993;SDS011;56054;50.968;5.816;2024-03-02T17:50:16;1.30;;;0.80;;
68993;SDS011;56054;50.968;5.816;2024-03-02T17:53:23;0.80;;;0.70;;
68993;SDS011;56054;50.968;5.816;2024-03-02T17:56:30;1.50;;;0.80;;
68993;SDS011;56054;50.968;5.816;2024-03-02T17:59:37;1.02;;;0.70;;
68993;SDS011;56054;50.968;5.816;2024-03-02T18:02:44;2.17;;;0.80;;
68993;SDS011;56054;50.968;5.816;2024-03-02T18:05:52;0.87;;;0.70;;
68993;SDS011;56054;50.968;5.816;2024-03-02T18:08:59;1.87;;;0.90;;
68993;SDS011;56054;50.968;5.816;2024-03-02T18:12:06;1.60;;;0.87;;
68993;SDS011;56054;50.968;5.816;2024-03-02T18:15:13;1.80;;;0.90;;
68993;SDS011;56054;50.968;5.816;2024-03-02T18:18:20;1.27;;;0.90;;
68993;SDS011;56054;50.968;5.816;2024-03-02T18:21:27;3.00;;;1.00;;
68993;SDS011;56054;50.968;5.816;2024-03-02T18:24:34;2.93;;;0.93;;
68993;SDS011;56054;50.968;5.816;2024-03-02T18:27:41;2.30;;;0.83;;
68993;SDS011;56054;50.968;5.816;2024-03-02T18:30:48;3.27;;;0.83;;
68993;SDS011;56054;50.968;5.816;2024-03-02T18:33:55;2.27;;;0.90;;
68993;SDS011;56054;50.968;5.816;2024-03-02T18:37:02;1.53;;;0.80;;
68993;SDS011;56054;50.968;5.816;2024-03-02T18:40:09;2.10;;;0.87;;
68993;SDS011;56054;50.968;5.816;2024-03-02T18:43:16;7.00;;;3.03;;
68993;SDS011;56054;50.968;5.816;2024-03-02T18:46:23;5.83;;;2.03;;
68993;SDS011;56054;50.968;5.816;2024-03-02T18:49:30;1.53;;;1.00;;